SIB4312 USPP-USTJ
Flight info
| Callsign | SIB4312 |
|---|---|
| Flight time | N/A |
| Altitude | 35000 |
| Route | ULPAS1L ULPAS P983 ATMEB T377 SALER N992 MIDET MIDET2B |
| Aircraft | B738/M-SDE2E3FGHIRWXY/LB1 |
Departure
| Time | N/A |
|---|---|
| Airport | Perm International Airport (USPP) |
Arrival
| Time | 2026-04-25 21:46 |
|---|---|
| Airport | Tobolsk Remezov Airport (USTJ) |
| Time | Latitude | Longitude | Altitude | Speed | Heading |
|---|---|---|---|---|---|
| 2026-04-25 21:23 | 58.02987 | 66.57561 | 26188 ft | 396 kts | 82° |
| 2026-04-25 21:23 | 58.03334 | 66.62619 | 25513 ft | 393 kts | 82° |
| 2026-04-25 21:23 | 58.03684 | 66.67695 | 24798 ft | 390 kts | 83° |
| 2026-04-25 21:24 | 58.04037 | 66.72725 | 24055 ft | 387 kts | 83° |
| 2026-04-25 21:24 | 58.04388 | 66.77704 | 23285 ft | 383 kts | 82° |
| 2026-04-25 21:24 | 58.04737 | 66.82666 | 22485 ft | 380 kts | 82° |
| 2026-04-25 21:24 | 58.05073 | 66.87505 | 21672 ft | 376 kts | 83° |
| 2026-04-25 21:25 | 58.05395 | 66.92326 | 20832 ft | 372 kts | 83° |
| 2026-04-25 21:25 | 58.05724 | 66.97128 | 19960 ft | 368 kts | 82° |
| 2026-04-25 21:25 | 58.06060 | 67.01834 | 19078 ft | 364 kts | 82° |
| 2026-04-25 21:25 | 58.06396 | 67.06491 | 18175 ft | 360 kts | 82° |
| 2026-04-25 21:26 | 58.06729 | 67.11150 | 17423 ft | 350 kts | 82° |
| 2026-04-25 21:26 | 58.07037 | 67.15562 | 17081 ft | 331 kts | 82° |
| 2026-04-25 21:26 | 58.07324 | 67.19744 | 16802 ft | 316 kts | 82° |
| 2026-04-25 21:26 | 58.07597 | 67.23811 | 16560 ft | 317 kts | 82° |
| 2026-04-25 21:27 | 58.07871 | 67.27946 | 16279 ft | 317 kts | 82° |
| 2026-04-25 21:27 | 58.08150 | 67.32066 | 15995 ft | 314 kts | 82° |
| 2026-04-25 21:27 | 58.08428 | 67.36124 | 15714 ft | 312 kts | 82° |
| 2026-04-25 21:27 | 58.08703 | 67.40153 | 15389 ft | 307 kts | 82° |
| 2026-04-25 21:28 | 58.08968 | 67.44099 | 14991 ft | 302 kts | 82° |
| 2026-04-25 21:28 | 58.09227 | 67.48010 | 14585 ft | 298 kts | 82° |
| 2026-04-25 21:28 | 58.09478 | 67.51835 | 14188 ft | 294 kts | 82° |
| 2026-04-25 21:28 | 58.09727 | 67.55621 | 13782 ft | 290 kts | 83° |
| 2026-04-25 21:29 | 58.09846 | 67.59370 | 13358 ft | 287 kts | 93° |
| 2026-04-25 21:29 | 58.09426 | 67.62997 | 12979 ft | 283 kts | 110° |
| 2026-04-25 21:29 | 58.08625 | 67.66385 | 12577 ft | 279 kts | 116° |
| 2026-04-25 21:29 | 58.07805 | 67.69664 | 12179 ft | 276 kts | 115° |
| 2026-04-25 21:30 | 58.07062 | 67.72952 | 11794 ft | 275 kts | 112° |
| 2026-04-25 21:30 | 58.06350 | 67.76365 | 11418 ft | 288 kts | 111° |
| 2026-04-25 21:30 | 58.05613 | 67.79910 | 11042 ft | 285 kts | 112° |
| 2026-04-25 21:30 | 58.05138 | 67.82156 | 10926 ft | 277 kts | 112° |
| 2026-04-25 21:31 | 58.04198 | 67.86535 | 10687 ft | 264 kts | 113° |
| 2026-04-25 21:31 | 58.03518 | 67.89692 | 10346 ft | 257 kts | 112° |
| 2026-04-25 21:31 | 58.02855 | 67.92787 | 10007 ft | 250 kts | 112° |
| 2026-04-25 21:31 | 58.02216 | 67.95780 | 9700 ft | 243 kts | 112° |
| 2026-04-25 21:32 | 58.01596 | 67.98686 | 9402 ft | 236 kts | 112° |
| 2026-04-25 21:32 | 58.00993 | 68.01490 | 9114 ft | 228 kts | 112° |
| 2026-04-25 21:32 | 58.00423 | 68.04130 | 8831 ft | 206 kts | 112° |
| 2026-04-25 21:32 | 57.99913 | 68.06503 | 8594 ft | 186 kts | 112° |
| 2026-04-25 21:33 | 57.99424 | 68.08786 | 8357 ft | 188 kts | 112° |
| 2026-04-25 21:33 | 57.98938 | 68.11050 | 8118 ft | 186 kts | 112° |
| 2026-04-25 21:33 | 57.98450 | 68.13303 | 7878 ft | 186 kts | 112° |
| 2026-04-25 21:33 | 57.97960 | 68.15565 | 7645 ft | 186 kts | 112° |
| 2026-04-25 21:34 | 57.97478 | 68.17790 | 7411 ft | 185 kts | 112° |
| 2026-04-25 21:34 | 57.96993 | 68.20031 | 7175 ft | 184 kts | 112° |
| 2026-04-25 21:34 | 57.96510 | 68.22260 | 6940 ft | 184 kts | 112° |
| 2026-04-25 21:34 | 57.96032 | 68.24458 | 6709 ft | 183 kts | 112° |
| 2026-04-25 21:35 | 57.95550 | 68.26673 | 6482 ft | 182 kts | 112° |
| 2026-04-25 21:35 | 57.95071 | 68.28876 | 6248 ft | 181 kts | 112° |
| 2026-04-25 21:35 | 57.94590 | 68.31078 | 6009 ft | 181 kts | 112° |
| 2026-04-25 21:35 | 57.94114 | 68.33252 | 5776 ft | 180 kts | 112° |
| 2026-04-25 21:36 | 57.93649 | 68.35383 | 5548 ft | 176 kts | 112° |
| 2026-04-25 21:36 | 57.93185 | 68.37540 | 5331 ft | 179 kts | 111° |
| 2026-04-25 21:36 | 57.92717 | 68.39690 | 5106 ft | 171 kts | 113° |
| 2026-04-25 21:36 | 57.92268 | 68.41701 | 4881 ft | 165 kts | 112° |
| 2026-04-25 21:37 | 57.91836 | 68.43712 | 4713 ft | 163 kts | 108° |
| 2026-04-25 21:37 | 57.91715 | 68.45118 | 4598 ft | 166 kts | 87° |
| 2026-04-25 21:37 | 57.92138 | 68.47866 | 4361 ft | 166 kts | 69° |
| 2026-04-25 21:37 | 57.92501 | 68.49925 | 4155 ft | 164 kts | 76° |
| 2026-04-25 21:38 | 57.92775 | 68.52005 | 3964 ft | 165 kts | 76° |
| 2026-04-25 21:38 | 57.93055 | 68.54090 | 3791 ft | 160 kts | 76° |
| 2026-04-25 21:38 | 57.93336 | 68.56036 | 3628 ft | 153 kts | 76° |
| 2026-04-25 21:38 | 57.93618 | 68.57986 | 3430 ft | 154 kts | 76° |
| 2026-04-25 21:39 | 57.93881 | 68.59932 | 3252 ft | 149 kts | 77° |
| 2026-04-25 21:39 | 57.94122 | 68.61768 | 3081 ft | 143 kts | 76° |
| 2026-04-25 21:39 | 57.94408 | 68.63536 | 2960 ft | 144 kts | 64° |
| 2026-04-25 21:39 | 57.95069 | 68.64915 | 2899 ft | 143 kts | 29° |
| 2026-04-25 21:40 | 57.96024 | 68.65382 | 2865 ft | 146 kts | 359° |
| 2026-04-25 21:40 | 57.96998 | 68.64893 | 2843 ft | 143 kts | 330° |
| 2026-04-25 21:40 | 57.97835 | 68.63926 | 2823 ft | 140 kts | 329° |
| 2026-04-25 21:40 | 57.98694 | 68.63047 | 2835 ft | 142 kts | 333° |
| 2026-04-25 21:41 | 57.99570 | 68.62212 | 2855 ft | 143 kts | 333° |
| 2026-04-25 21:41 | 58.00447 | 68.61342 | 2848 ft | 143 kts | 332° |
| 2026-04-25 21:41 | 58.01325 | 68.60474 | 2858 ft | 141 kts | 333° |
| 2026-04-25 21:41 | 58.02193 | 68.59620 | 2862 ft | 140 kts | 333° |
| 2026-04-25 21:42 | 58.03048 | 68.58775 | 2851 ft | 140 kts | 333° |
| 2026-04-25 21:42 | 58.03918 | 68.57916 | 2848 ft | 142 kts | 333° |
| 2026-04-25 21:42 | 58.04789 | 68.57056 | 2698 ft | 142 kts | 333° |
| 2026-04-25 21:42 | 58.05592 | 68.56042 | 2515 ft | 138 kts | 311° |
| 2026-04-25 21:43 | 58.05947 | 68.54377 | 2329 ft | 140 kts | 271° |
| 2026-04-25 21:43 | 58.05849 | 68.52575 | 2184 ft | 139 kts | 262° |
| 2026-04-25 21:43 | 58.05806 | 68.50749 | 1978 ft | 138 kts | 271° |
| 2026-04-25 21:43 | 58.05803 | 68.48955 | 1836 ft | 135 kts | 268° |
| 2026-04-25 21:44 | 58.05786 | 68.47142 | 1816 ft | 137 kts | 270° |
| 2026-04-25 21:44 | 58.05802 | 68.45351 | 1872 ft | 138 kts | 272° |
| 2026-04-25 21:44 | 58.05790 | 68.41441 | 1406 ft | 159 kts | 268° |
| 2026-04-25 21:45 | 58.05862 | 68.39370 | 685 ft | 164 kts | 269° |
| 2026-04-25 21:45 | 58.05838 | 68.37905 | 338 ft | 167 kts | 269° |
| 2026-04-25 21:45 | 58.05825 | 68.35267 | 175 ft | 136 kts | 276° |
| 2026-04-25 21:45 | 58.05832 | 68.33835 | 160 ft | 74 kts | 276° |
| 2026-04-25 21:46 | 58.05833 | 68.33362 | 152 ft | 1 kts | 275° |
| 2026-04-25 21:46 | 58.05832 | 68.33382 | 153 ft | 0 kts | 275° |
| 2026-04-25 21:46 | 58.05832 | 68.33379 | 153 ft | 0 kts | 288° |
| 2026-04-25 21:46 | 58.05833 | 68.33377 | 153 ft | 0 kts | 306° |
| 2026-04-25 21:47 | 58.05834 | 68.33376 | 153 ft | 0 kts | 317° |
| 2026-04-25 21:47 | 58.05846 | 68.33363 | 153 ft | 1 kts | 338° |
| 2026-04-25 21:47 | 58.05856 | 68.33358 | 153 ft | 1 kts | 346° |
| 2026-04-25 21:47 | 58.05864 | 68.33358 | 153 ft | 0 kts | 5° |
| 2026-04-25 21:48 | 58.05885 | 68.33364 | 154 ft | 4 kts | 11° |
| 2026-04-25 21:48 | 58.05907 | 68.33372 | 154 ft | 3 kts | 8° |
| 2026-04-25 21:48 | 58.05937 | 68.33377 | 155 ft | 5 kts | 2° |
| 2026-04-25 21:48 | 58.05986 | 68.33373 | 155 ft | 7 kts | 349° |
| 2026-04-25 21:49 | 58.06022 | 68.33318 | 155 ft | 6 kts | 294° |
| 2026-04-25 21:49 | 58.06029 | 68.33218 | 153 ft | 8 kts | 267° |
| 2026-04-25 21:49 | 58.06044 | 68.33113 | 151 ft | 8 kts | 322° |
| 2026-04-25 21:49 | 58.06092 | 68.33108 | 152 ft | 6 kts | 29° |
| 2026-04-25 21:50 | 58.06097 | 68.33115 | 152 ft | 0 kts | 46° |